.
WxDataArchive / Data Records for 2006-01-15
2006-01-14 January 2006 2006-01-16

Data Records for Sunday, 15 January 2006

Time	Temp	Chill	HIndex	Humid	Dewpt	 Wind 	HiWind	WindDir	Rain 	Barom 
-----	----	-----	------	-----	-----	------	------	-------	-----	----- 
00:00	24.8	24.8	24.8	83	20.4	0	0	---	0.00	30.100 
00:05	24.7	24.7	24.7	84	20.6	0	0	---	0.00	30.100 
00:10	24.7	24.7	24.7	84	20.6	0	0	---	0.00	30.100 
00:15	24.5	24.5	24.5	84	20.4	0	0	---	0.00	30.113 
00:20	24.5	24.5	24.5	84	20.4	0	0	---	0.00	30.113 
00:25	24.5	24.5	24.5	84	20.4	0	0	---	0.00	30.113 
00:30	24.4	24.4	24.4	84	20.3	0	0	---	0.00	30.104 
00:35	24.4	24.4	24.4	85	20.6	0	0	---	0.00	30.104 
00:40	24.2	24.2	24.2	85	20.4	0	0	---	0.00	30.104 
00:45	24.1	24.1	24.1	85	20.3	0	0	---	0.00	30.100 
00:50	24.1	24.1	24.1	85	20.3	0	0	---	0.00	30.100 
00:55	24.1	24.1	24.1	86	20.5	0	0	---	0.00	30.100 
01:00	24.1	24.1	24.1	86	20.5	0	0	---	0.00	30.098 
01:05	24.4	24.4	24.4	87	21.1	0	0	---	0.00	30.098 
01:10	24.5	24.5	24.5	87	21.2	0	0	---	0.00	30.098 
01:15	24.7	24.7	24.7	87	21.4	0	0	---	0.00	30.092 
01:20	24.8	24.8	24.8	87	21.5	0	0	---	0.00	30.092 
01:25	25.0	25.0	25.0	87	21.7	0	1	292	0.00	30.092 
01:30	25.3	25.3	25.3	86	21.7	0	1	292	0.00	30.088 
01:35	25.4	25.4	25.4	86	21.8	0	0	---	0.00	30.088 
01:40	25.4	25.4	25.4	85	21.5	0	0	---	0.00	30.088 
01:45	25.6	25.6	25.6	85	21.7	0	0	---	0.00	30.087 
01:50	25.7	25.7	25.7	85	21.8	0	0	---	0.00	30.087 
01:55	25.7	25.7	25.7	85	21.8	0	1	292	0.00	30.087 
02:00	25.8	25.8	25.8	85	21.9	0	0	---	0.00	30.086 
02:05	26.0	26.0	26.0	84	21.8	0	0	---	0.00	30.086 
02:10	26.0	26.0	26.0	84	21.8	0	0	---	0.00	30.086 
02:15	26.0	26.0	26.0	84	21.8	0	0	---	0.00	30.091 
02:20	26.0	26.0	26.0	84	21.8	0	0	---	0.00	30.091 
02:25	26.0	26.0	26.0	84	21.8	0	0	---	0.00	30.091 
02:30	26.1	26.1	26.1	84	21.9	0	0	---	0.00	30.101 
02:35	26.1	26.1	26.1	84	21.9	0	0	---	0.00	30.101 
02:40	26.1	26.1	26.1	84	21.9	0	0	---	0.00	30.101 
02:45	26.1	26.1	26.1	84	21.9	0	0	---	0.00	30.100 
02:50	26.1	26.1	26.1	84	21.9	0	0	---	0.00	30.100 
02:55	26.0	26.0	26.0	84	21.8	0	0	---	0.00	30.100 
03:00	25.8	25.8	25.8	84	21.6	0	0	---	0.00	30.107 
03:05	25.7	25.7	25.7	84	21.5	0	0	---	0.00	30.107 
03:10	25.7	25.7	25.7	84	21.5	0	0	---	0.00	30.107 
03:15	25.6	25.6	25.6	84	21.5	0	0	---	0.00	30.102 
03:20	25.6	25.6	25.6	84	21.5	0	0	---	0.00	30.102 
03:25	25.7	25.7	25.7	84	21.5	0	0	---	0.00	30.102 
03:30	25.8	25.8	25.8	85	21.9	0	0	---	0.00	30.108 
03:35	26.0	26.0	26.0	85	22.1	0	0	---	0.00	30.108 
03:40	26.1	26.1	26.1	85	22.2	0	0	---	0.00	30.108 
03:45	26.3	26.3	26.3	84	22.1	0	0	---	0.00	30.104 
03:50	26.3	26.3	26.3	84	22.1	0	0	---	0.00	30.104 
03:55	26.3	26.3	26.3	84	22.1	0	0	---	0.00	30.104 
04:00	26.4	26.4	26.4	84	22.2	0	0	---	0.00	30.096 
04:05	26.4	26.4	26.4	84	22.2	0	0	---	0.00	30.096 
04:10	26.4	26.4	26.4	84	22.2	0	1	292	0.00	30.096 
04:15	26.4	26.4	26.4	84	22.2	0	0	---	0.00	30.094 
04:20	26.6	26.6	26.6	83	22.1	0	0	---	0.00	30.094 
04:25	26.6	26.6	26.6	83	22.1	0	0	---	0.00	30.094 
04:30	26.4	26.4	26.4	83	22.0	0	0	---	0.00	30.086 
04:35	26.3	26.3	26.3	82	21.6	0	0	---	0.00	30.086 
04:40	26.1	26.1	26.1	83	21.7	0	0	---	0.00	30.086 
04:45	26.0	26.0	26.0	83	21.6	0	1	292	0.00	30.081 
04:50	25.7	25.7	25.7	83	21.3	0	0	---	0.00	30.081 
04:55	25.6	25.6	25.6	83	21.2	0	0	---	0.00	30.081 
05:00	25.3	25.3	25.3	84	21.2	0	0	---	0.00	30.090 
05:05	25.1	25.1	25.1	84	21.0	0	0	---	0.00	30.090 
05:10	25.0	25.0	25.0	84	20.9	0	0	---	0.00	30.090 
05:15	24.7	24.7	24.7	85	20.8	0	0	---	0.00	30.087 
05:20	24.5	24.5	24.5	84	20.4	0	0	---	0.00	30.087 
05:25	24.4	24.4	24.4	85	20.6	0	0	---	0.00	30.087 
05:30	24.2	24.2	24.2	86	20.6	0	0	---	0.00	30.084 
05:35	24.1	24.1	24.1	86	20.5	0	0	---	0.00	30.084 
05:40	23.9	23.9	23.9	86	20.3	0	0	---	0.00	30.084 
05:45	23.8	23.8	23.8	87	20.5	0	0	---	0.00	30.087 
05:50	23.8	23.8	23.8	88	20.8	0	0	---	0.00	30.087 
05:55	23.9	23.9	23.9	88	20.9	0	0	---	0.00	30.087 
06:00	24.2	24.2	24.2	88	21.2	0	1	292	0.00	30.076 
06:05	24.5	24.5	24.5	88	21.5	0	1	292	0.00	30.076 
06:10	24.8	24.8	24.8	88	21.8	0	1	292	0.00	30.076 
06:15	25.0	25.0	25.0	88	22.0	0	0	---	0.00	30.085 
06:20	25.1	25.1	25.1	87	21.8	0	0	---	0.00	30.085 
06:25	25.3	25.3	25.3	86	21.7	0	2	292	0.00	30.085 
06:30	25.6	25.6	25.6	85	21.7	0	2	292	0.00	30.082 
06:35	25.7	25.7	25.7	84	21.5	0	1	292	0.00	30.082 
06:40	25.8	25.8	25.8	85	21.9	0	1	292	0.00	30.082 
06:45	26.0	26.0	26.0	84	21.8	0	0	---	0.00	30.088 
06:50	26.0	26.0	26.0	84	21.8	0	0	---	0.00	30.088 
06:55	26.1	26.1	26.1	84	21.9	0	0	---	0.00	30.088 
07:00	26.1	26.1	26.1	83	21.7	0	1	292	0.00	30.094 
07:05	26.3	26.3	26.3	83	21.9	0	2	292	0.00	30.094 
07:10	26.3	26.3	26.3	82	21.6	0	1	292	0.00	30.094 
07:15	26.3	26.3	26.3	81	21.3	1	2	0	0.00	30.088 
07:20	26.3	26.3	26.3	80	21.0	0	2	0	0.00	30.088 
07:25	26.3	26.3	26.3	81	21.3	0	1	0	0.00	30.088 
07:30	26.3	26.3	26.3	81	21.3	1	2	0	0.00	30.086 
07:35	26.1	26.1	26.1	81	21.1	1	2	22	0.00	30.086 
07:40	26.1	26.1	26.1	81	21.1	0	2	22	0.00	30.086 
07:45	26.1	26.1	26.1	81	21.1	0	1	22	0.00	30.089 
07:50	26.1	26.1	26.1	81	21.1	0	1	22	0.00	30.089 
07:55	26.3	26.3	26.3	81	21.3	0	1	22	0.00	30.089 
08:00	26.3	26.3	26.3	82	21.6	0	1	22	0.00	30.085 
08:05	26.4	26.4	26.4	82	21.7	0	1	22	0.00	30.085 
08:10	26.4	26.4	26.4	81	21.4	0	0	---	0.00	30.085 
08:15	26.4	26.4	26.4	79	20.8	1	3	68	0.00	30.085 
08:20	26.4	26.4	26.4	79	20.8	0	2	68	0.00	30.085 
08:25	26.4	26.4	26.4	79	20.8	1	3	68	0.00	30.085 
08:30	26.4	26.4	26.4	79	20.8	1	3	68	0.00	30.087 
08:35	26.4	26.4	26.4	79	20.8	1	2	68	0.00	30.087 
08:40	26.6	26.6	26.6	79	21.0	0	2	68	0.00	30.087 
08:45	26.6	26.6	26.6	79	21.0	0	2	68	0.00	30.087 
08:50	26.7	26.7	26.7	77	20.5	1	2	68	0.00	30.087 
08:55	26.7	26.7	26.7	76	20.2	1	3	90	0.00	30.087 
09:00	26.9	26.9	26.9	76	20.4	1	3	112	0.00	30.098 
09:05	26.9	26.9	26.9	76	20.4	2	4	112	0.00	30.098 
09:10	27.0	27.0	27.0	77	20.8	1	3	112	0.00	30.098 
09:15	27.0	27.0	27.0	77	20.8	1	3	90	0.00	30.088 
09:20	27.2	27.2	27.2	77	21.0	1	3	90	0.00	30.088 
09:25	27.2	27.2	27.2	77	21.0	1	4	112	0.00	30.088 
09:30	27.3	27.3	27.3	77	21.1	2	4	112	0.00	30.082 
09:35	27.3	27.3	27.3	77	21.1	0	2	90	0.00	30.082 
09:40	27.5	27.5	27.5	76	20.9	1	3	90	0.00	30.082 
09:45	27.6	27.6	27.6	77	21.4	1	2	112	0.00	30.078 
09:50	27.8	27.8	27.8	76	21.2	1	4	112	0.00	30.078 
09:55	27.8	27.8	27.8	77	21.5	1	3	112	0.00	30.078 
10:00	27.9	27.9	27.9	76	21.3	1	4	90	0.00	30.085 
10:05	28.2	28.2	28.2	76	21.6	1	2	112	0.00	30.085 
10:10	28.4	28.4	28.4	77	22.1	1	3	112	0.00	30.085 
10:15	28.5	28.5	28.5	77	22.2	2	4	90	0.00	30.085 
10:20	28.8	28.8	28.8	77	22.5	1	3	90	0.00	30.085 
10:25	29.0	29.0	29.0	75	22.1	2	5	112	0.00	30.085 
10:30	29.1	29.1	29.1	76	22.5	1	3	112	0.00	30.082 
10:35	29.4	29.4	29.4	76	22.8	1	3	135	0.00	30.082 
10:40	29.5	29.5	29.5	75	22.6	1	3	112	0.00	30.082 
10:45	29.8	29.8	29.8	75	22.9	1	4	112	0.00	30.084 
10:50	29.8	29.8	29.8	74	22.5	2	4	112	0.00	30.084 
10:55	29.8	29.8	29.8	75	22.9	1	3	112	0.00	30.084 
11:00	30.1	30.1	30.1	73	22.5	1	4	112	0.00	30.077 
11:05	30.3	30.3	30.3	74	23.0	1	4	135	0.00	30.077 
11:10	30.6	30.6	30.6	74	23.3	1	4	90	0.00	30.077 
11:15	30.7	30.7	30.7	73	23.1	1	4	90	0.00	30.080 
11:20	30.7	30.7	30.7	73	23.1	1	3	90	0.00	30.080 
11:25	30.9	30.9	30.9	73	23.3	3	6	112	0.00	30.080 
11:30	31.0	31.0	31.0	73	23.4	2	7	112	0.00	30.062 
11:35	31.0	31.0	31.0	74	23.7	3	6	112	0.00	30.062 
11:40	31.2	31.2	31.2	73	23.6	2	6	112	0.00	30.062 
11:45	31.3	31.3	31.3	73	23.7	3	7	112	0.00	30.047 
11:50	31.5	31.5	31.5	73	23.9	2	5	90	0.00	30.047 
11:55	31.6	31.6	31.6	73	24.0	2	5	112	0.00	30.047 
12:00	31.8	31.8	31.8	72	23.8	3	6	90	0.00	30.034 
12:05	31.8	27.8	31.8	72	23.8	4	7	90	0.00	30.034 
12:10	31.8	31.8	31.8	73	24.1	3	7	90	0.00	30.034 
12:15	32.2	32.2	32.2	73	24.5	2	4	112	0.00	30.023 
12:20	32.4	32.4	32.4	73	24.7	2	7	112	0.00	30.023 
12:25	32.8	32.8	32.8	73	25.1	2	4	90	0.00	30.023 
12:30	33.1	33.1	33.1	71	24.7	2	4	90	0.00	30.024 
12:35	33.2	33.2	33.2	72	25.2	2	4	112	0.00	30.024 
12:40	33.7	33.7	33.7	72	25.7	2	5	68	0.00	30.024 
12:45	33.8	33.8	33.8	69	24.7	1	4	112	0.00	30.023 
12:50	34.1	34.1	34.1	72	26.0	2	9	112	0.00	30.023 
12:55	34.3	34.3	34.3	71	25.9	2	11	90	0.00	30.023 
13:00	34.3	34.3	34.3	69	25.2	2	6	112	0.00	30.009 
13:05	34.1	34.1	34.1	70	25.4	2	6	90	0.00	30.009 
13:10	34.0	34.0	34.0	71	25.6	2	5	112	0.00	30.009 
13:15	33.7	33.7	33.7	71	25.3	3	6	90	0.00	30.003 
13:20	33.8	33.8	33.8	73	26.1	2	5	112	0.00	30.003 
13:25	34.1	34.1	34.1	71	25.7	2	6	112	0.00	30.003 
13:30	34.4	34.4	34.4	73	26.7	2	5	90	0.00	29.991 
13:35	34.6	34.6	34.6	72	26.5	3	7	90	0.00	29.991 
13:40	35.0	35.0	35.0	71	26.6	2	6	248	0.00	29.991 
13:45	35.0	35.0	35.0	69	25.9	3	6	112	0.00	29.982 
13:50	34.9	34.9	34.9	69	25.8	2	6	90	0.00	29.982 
13:55	35.2	35.2	35.2	71	26.8	2	7	112	0.00	29.982 
14:00	35.2	35.2	35.2	71	26.8	3	8	112	0.00	29.972 
14:05	35.3	35.3	35.3	69	26.2	2	5	112	0.00	29.972 
14:10	35.5	35.5	35.5	69	26.4	3	6	90	0.00	29.972 
14:15	35.6	35.6	35.6	70	26.8	2	4	112	0.00	29.966 
14:20	35.6	35.6	35.6	68	26.1	3	6	90	0.00	29.966 
14:25	35.8	35.8	35.8	69	26.6	2	6	90	0.00	29.966 
14:30	35.9	35.9	35.9	67	26.0	3	9	112	0.00	29.953 
14:35	36.0	36.0	36.0	68	26.5	2	6	112	0.00	29.953 
14:40	36.0	36.0	36.0	67	26.1	3	7	112	0.00	29.953 
14:45	36.0	36.0	36.0	68	26.5	3	5	90	0.00	29.951 
14:50	35.9	35.9	35.9	67	26.0	3	6	112	0.00	29.951 
14:55	35.8	35.8	35.8	67	25.9	3	10	90	0.00	29.951 
15:00	35.6	35.6	35.6	69	26.4	3	7	90	0.00	29.942 
15:05	35.6	35.6	35.6	69	26.4	2	5	90	0.00	29.942 
15:10	35.8	35.8	35.8	69	26.6	3	6	68	0.00	29.942 
15:15	35.8	32.5	35.8	68	26.3	4	10	112	0.00	29.939 
15:20	36.2	36.2	36.2	69	27.0	3	6	90	0.00	29.939 
15:25	36.8	36.8	36.8	66	26.5	3	6	112	0.00	29.939 
15:30	36.8	36.8	36.8	66	26.5	3	10	112	0.00	29.940 
15:35	36.8	36.8	36.8	68	27.2	2	6	112	0.00	29.940 
15:40	36.6	36.6	36.6	68	27.1	3	6	112	0.00	29.940 
15:45	36.5	36.5	36.5	67	26.6	2	6	90	0.00	29.942 
15:50	36.5	36.5	36.5	69	27.3	2	5	112	0.00	29.942 
15:55	36.3	36.3	36.3	69	27.1	2	5	90	0.00	29.942 
16:00	36.0	36.0	36.0	69	26.8	2	6	112	0.00	29.941 
16:05	35.9	35.9	35.9	70	27.1	2	5	112	0.00	29.941 
16:10	35.8	35.8	35.8	69	26.6	3	6	112	0.00	29.941 
16:15	35.8	35.8	35.8	69	26.6	3	7	112	0.00	29.940 
16:20	35.9	35.9	35.9	70	27.1	3	9	112	0.00	29.940 
16:25	36.2	36.2	36.2	70	27.4	3	7	112	0.00	29.940 
16:30	36.5	36.5	36.5	69	27.3	3	7	112	0.00	29.928 
16:35	36.5	33.3	36.5	69	27.3	4	9	112	0.00	29.928 
16:40	36.3	33.0	36.3	70	27.5	4	10	112	0.00	29.928 
16:45	36.3	33.0	36.3	70	27.5	4	7	90	0.00	29.925 
16:50	36.2	32.9	36.2	71	27.7	4	7	112	0.00	29.925 
16:55	36.2	32.9	36.2	71	27.7	4	9	112	0.00	29.925 
17:00	36.0	31.8	36.0	71	27.5	5	12	112	0.00	29.923 
17:05	35.8	32.5	35.8	72	27.7	4	7	112	0.00	29.923 
17:10	35.6	32.2	35.6	72	27.5	4	7	112	0.00	29.923 
17:15	35.5	32.1	35.5	72	27.4	4	7	112	0.00	29.914 
17:20	35.2	31.8	35.2	73	27.4	4	7	112	0.00	29.914 
17:25	34.9	34.9	34.9	73	27.1	3	7	112	0.00	29.914 
17:30	34.7	34.7	34.7	74	27.3	3	6	112	0.00	29.910 
17:35	34.6	34.6	34.6	75	27.5	3	6	112	0.00	29.910 
17:40	34.3	30.7	34.3	76	27.5	4	7	112	0.00	29.910 
17:45	34.1	30.5	34.1	77	27.7	4	7	112	0.00	29.907 
17:50	34.0	30.4	34.0	77	27.6	4	6	112	0.00	29.907 
17:55	33.7	30.0	33.7	77	27.3	4	7	90	0.00	29.907 
18:00	33.5	29.8	33.5	77	27.1	4	9	112	0.00	29.899 
18:05	33.4	29.7	33.4	77	27.0	4	9	112	0.00	29.899 
18:10	33.2	33.2	33.2	77	26.8	3	7	112	0.00	29.899 
18:15	33.2	29.5	33.2	78	27.1	4	7	112	0.00	29.892 
18:20	33.1	29.3	33.1	78	27.0	4	9	112	0.00	29.892 
18:25	32.9	29.1	32.9	78	26.8	4	10	112	0.00	29.892 
18:30	32.9	29.1	32.9	78	26.8	4	7	112	0.00	29.891 
18:35	32.8	29.0	32.8	78	26.7	4	6	112	0.00	29.891 
18:40	32.7	32.7	32.7	78	26.6	3	7	112	0.00	29.891 
18:45	32.5	28.7	32.5	78	26.4	4	10	112	0.00	29.884 
18:50	32.4	32.4	32.4	79	26.6	3	5	112	0.00	29.884 
18:55	32.4	28.5	32.4	79	26.6	4	7	112	0.00	29.884 
19:00	32.2	28.3	32.2	80	26.7	4	6	112	0.00	29.878 
19:05	32.2	32.2	32.2	80	26.7	3	9	112	0.00	29.878 
19:10	32.1	32.1	32.1	80	26.6	3	5	90	0.00	29.878 
19:15	31.9	31.9	31.9	81	26.7	3	7	112	0.00	29.879 
19:20	31.9	31.9	31.9	81	26.7	3	6	112	0.00	29.879 
19:25	31.9	28.0	31.9	81	26.7	4	7	112	0.00	29.879 
19:30	31.9	28.0	31.9	81	26.7	4	10	112	0.00	29.871 
19:35	31.9	28.0	31.9	81	26.7	4	7	112	0.00	29.871 
19:40	31.9	27.0	31.9	81	26.7	5	9	90	0.00	29.871 
19:45	31.9	27.0	31.9	81	26.7	5	10	90	0.00	29.860 
19:50	31.9	27.0	31.9	81	26.7	5	13	112	0.00	29.860 
19:55	31.8	26.8	31.8	82	26.9	5	11	90	0.00	29.860 
20:00	31.8	26.8	31.8	81	26.6	5	7	112	0.00	29.861 
20:05	31.6	27.6	31.6	81	26.5	4	9	112	0.00	29.861 
20:10	31.5	27.5	31.5	82	26.7	4	7	112	0.00	29.861 
20:15	31.5	27.5	31.5	82	26.7	4	10	112	0.00	29.861 
20:20	31.3	31.3	31.3	82	26.5	3	6	112	0.00	29.861 
20:25	31.3	27.3	31.3	82	26.5	4	9	112	0.00	29.861 
20:30	31.3	26.3	31.3	82	26.5	5	8	90	0.00	29.860 
20:35	31.2	27.2	31.2	82	26.4	4	9	112	0.00	29.860 
20:40	31.2	27.2	31.2	82	26.4	4	9	90	0.00	29.860 
20:45	31.0	26.9	31.0	82	26.2	4	10	112	0.00	29.859 
20:50	31.2	26.1	31.2	82	26.4	5	11	90	0.00	29.859 
20:55	31.0	26.9	31.0	82	26.2	4	6	90	0.00	29.859 
21:00	31.2	27.2	31.2	82	26.4	4	8	90	0.00	29.860 
21:05	31.2	27.2	31.2	81	26.1	4	9	90	0.00	29.860 
21:10	31.2	31.2	31.2	81	26.1	3	7	90	0.00	29.860 
21:15	31.3	27.3	31.3	81	26.2	4	9	90	0.00	29.859 
21:20	31.3	31.3	31.3	81	26.2	3	7	112	0.00	29.859 
21:25	31.3	27.3	31.3	81	26.2	4	9	112	0.00	29.859 
21:30	31.5	26.5	31.5	81	26.4	5	11	112	0.00	29.853 
21:35	31.5	26.5	31.5	81	26.4	5	9	112	0.00	29.853 
21:40	31.5	26.5	31.5	81	26.4	5	11	112	0.00	29.853 
21:45	31.5	26.5	31.5	81	26.4	5	10	90	0.00	29.846 
21:50	31.3	27.3	31.3	81	26.2	4	9	90	0.00	29.846 
21:55	31.3	27.3	31.3	81	26.2	4	10	112	0.00	29.846 
22:00	31.3	27.3	31.3	81	26.2	4	7	112	0.00	29.845 
22:05	31.3	26.3	31.3	81	26.2	5	11	112	0.00	29.845 
22:10	31.3	26.3	31.3	82	26.5	5	10	112	0.00	29.845 
22:15	31.2	26.1	31.2	82	26.4	5	11	112	0.00	29.840 
22:20	31.2	27.2	31.2	82	26.4	4	9	112	0.00	29.840 
22:25	31.2	26.1	31.2	82	26.4	5	8	112	0.00	29.840 
22:30	31.0	26.9	31.0	82	26.2	4	8	112	0.00	29.829 
22:35	31.2	26.1	31.2	82	26.4	5	11	112	0.00	29.829 
22:40	31.2	26.1	31.2	82	26.4	5	7	90	0.00	29.829 
22:45	31.2	27.2	31.2	82	26.4	4	8	112	0.00	29.827 
22:50	31.2	27.2	31.2	82	26.4	4	9	90	0.00	29.827 
22:55	31.2	27.2	31.2	82	26.4	4	7	112	0.00	29.827 
23:00	31.2	26.1	31.2	82	26.4	5	11	112	0.00	29.823 
23:05	31.0	25.9	31.0	82	26.2	5	11	112	0.00	29.823 
23:10	31.0	26.9	31.0	82	26.2	4	10	112	0.00	29.823 
23:15	30.9	26.8	30.9	82	26.1	4	9	112	0.00	29.810 
23:20	30.7	26.6	30.7	82	25.9	4	9	112	0.00	29.810 
23:25	30.7	26.6	30.7	83	26.2	4	9	112	0.00	29.810 
23:30	30.6	26.5	30.6	83	26.1	4	9	112	0.00	29.808 
23:35	30.6	25.4	30.6	83	26.1	5	10	112	0.00	29.808 
23:40	30.6	26.5	30.6	83	26.1	4	9	112	0.00	29.808 
23:45	30.6	24.6	30.6	83	26.1	6	12	90	0.00	29.801 
23:50	30.6	25.4	30.6	83	26.1	5	10	112	0.00	29.801 
23:55	30.4	26.2	30.4	83	25.9	4	7	112	0.00	29.801 

CoCoRaHS
IN-AL-39
A2 Web Hosting
Creative Commons License
GoDaddy
Look for:

loaded 2017-10-17 09:27:08 • last modified 2010-11-18 10:43:29
Privacy PolicyDisclaimer
• wx.awcolley.com is powered by PmWiki v.2002016 •
• all content (unless otherwise noted) © 2017 A W Colley